sensor_id;sensor_type;location;lat;lon;timestamp;P1;durP1;ratioP1;P2;durP2;ratioP2
8952;SDS011;4511;50.890;8.054;2023-07-24T00:01:21;3.73;;;3.20;;
8952;SDS011;4511;50.890;8.054;2023-07-24T00:03:48;3.70;;;3.20;;
8952;SDS011;4511;50.890;8.054;2023-07-24T00:06:15;2.93;;;2.73;;
8952;SDS011;4511;50.890;8.054;2023-07-24T00:08:44;3.93;;;2.90;;
8952;SDS011;4511;50.890;8.054;2023-07-24T00:11:11;2.93;;;2.73;;
8952;SDS011;4511;50.890;8.054;2023-07-24T00:13:37;3.63;;;2.97;;
8952;SDS011;4511;50.890;8.054;2023-07-24T00:16:06;2.90;;;2.70;;
8952;SDS011;4511;50.890;8.054;2023-07-24T00:18:33;5.13;;;3.20;;
8952;SDS011;4511;50.890;8.054;2023-07-24T00:21:00;3.80;;;2.97;;
8952;SDS011;4511;50.890;8.054;2023-07-24T00:23:27;3.40;;;3.10;;
8952;SDS011;4511;50.890;8.054;2023-07-24T00:25:55;3.53;;;3.23;;
8952;SDS011;4511;50.890;8.054;2023-07-24T00:28:22;3.40;;;3.10;;
8952;SDS011;4511;50.890;8.054;2023-07-24T00:30:48;3.23;;;3.00;;
8952;SDS011;4511;50.890;8.054;2023-07-24T00:33:15;3.13;;;2.83;;
8952;SDS011;4511;50.890;8.054;2023-07-24T00:35:42;3.87;;;3.07;;
8952;SDS011;4511;50.890;8.054;2023-07-24T00:38:09;5.43;;;3.40;;
8952;SDS011;4511;50.890;8.054;2023-07-24T00:40:35;4.27;;;3.47;;
8952;SDS011;4511;50.890;8.054;2023-07-24T00:43:03;3.83;;;2.97;;
8952;SDS011;4511;50.890;8.054;2023-07-24T00:45:30;3.80;;;3.50;;
8952;SDS011;4511;50.890;8.054;2023-07-24T00:47:57;3.47;;;3.17;;
8952;SDS011;4511;50.890;8.054;2023-07-24T00:50:25;6.50;;;3.27;;
8952;SDS011;4511;50.890;8.054;2023-07-24T00:52:53;3.40;;;3.10;;
8952;SDS011;4511;50.890;8.054;2023-07-24T00:55:20;3.13;;;2.90;;
8952;SDS011;4511;50.890;8.054;2023-07-24T00:57:47;4.07;;;3.70;;
8952;SDS011;4511;50.890;8.054;2023-07-24T01:00:16;3.33;;;3.03;;
8952;SDS011;4511;50.890;8.054;2023-07-24T01:02:43;3.73;;;3.40;;
8952;SDS011;4511;50.890;8.054;2023-07-24T01:05:11;3.53;;;3.23;;
8952;SDS011;4511;50.890;8.054;2023-07-24T01:07:40;5.60;;;3.30;;
8952;SDS011;4511;50.890;8.054;2023-07-24T01:10:07;4.97;;;3.17;;
8952;SDS011;4511;50.890;8.054;2023-07-24T01:12:35;4.10;;;3.03;;
8952;SDS011;4511;50.890;8.054;2023-07-24T01:15:08;4.80;;;3.30;;
8952;SDS011;4511;50.890;8.054;2023-07-24T01:17:41;3.67;;;3.37;;
8952;SDS011;4511;50.890;8.054;2023-07-24T01:20:12;4.00;;;3.67;;
8952;SDS011;4511;50.890;8.054;2023-07-24T01:22:45;4.03;;;3.63;;
8952;SDS011;4511;50.890;8.054;2023-07-24T01:25:23;3.97;;;3.60;;
8952;SDS011;4511;50.890;8.054;2023-07-24T01:27:57;238.33;;;8.90;;
8952;SDS011;4511;50.890;8.054;2023-07-24T01:30:24;324.70;;;10.53;;
8952;SDS011;4511;50.890;8.054;2023-07-24T01:32:51;52.47;;;4.83;;
8952;SDS011;4511;50.890;8.054;2023-07-24T01:35:17;83.53;;;5.87;;
8952;SDS011;4511;50.890;8.054;2023-07-24T01:37:45;285.37;;;10.30;;
8952;SDS011;4511;50.890;8.054;2023-07-24T01:40:13;342.87;;;10.67;;
8952;SDS011;4511;50.890;8.054;2023-07-24T01:42:41;29.17;;;4.47;;
8952;SDS011;4511;50.890;8.054;2023-07-24T01:45:13;3.87;;;3.50;;
8952;SDS011;4511;50.890;8.054;2023-07-24T01:47:39;3.77;;;3.47;;
8952;SDS011;4511;50.890;8.054;2023-07-24T01:50:06;3.10;;;2.90;;
8952;SDS011;4511;50.890;8.054;2023-07-24T01:52:34;4.10;;;3.70;;
8952;SDS011;4511;50.890;8.054;2023-07-24T01:55:00;3.60;;;3.30;;
8952;SDS011;4511;50.890;8.054;2023-07-24T01:57:27;3.67;;;3.37;;
8952;SDS011;4511;50.890;8.054;2023-07-24T01:59:54;5.93;;;3.20;;
8952;SDS011;4511;50.890;8.054;2023-07-24T02:02:22;5.60;;;2.93;;
8952;SDS011;4511;50.890;8.054;2023-07-24T02:04:49;5.63;;;3.33;;
8952;SDS011;4511;50.890;8.054;2023-07-24T02:07:16;3.80;;;3.50;;
8952;SDS011;4511;50.890;8.054;2023-07-24T02:09:42;3.50;;;3.20;;
8952;SDS011;4511;50.890;8.054;2023-07-24T02:12:09;4.97;;;3.60;;
8952;SDS011;4511;50.890;8.054;2023-07-24T02:14:36;4.00;;;3.00;;
8952;SDS011;4511;50.890;8.054;2023-07-24T02:17:03;3.83;;;3.27;;
8952;SDS011;4511;50.890;8.054;2023-07-24T02:19:31;3.50;;;3.20;;
8952;SDS011;4511;50.890;8.054;2023-07-24T02:21:58;4.80;;;3.60;;
8952;SDS011;4511;50.890;8.054;2023-07-24T02:24:25;4.03;;;3.60;;
8952;SDS011;4511;50.890;8.054;2023-07-24T02:26:52;4.67;;;3.43;;
8952;SDS011;4511;50.890;8.054;2023-07-24T02:29:19;9.10;;;3.40;;
8952;SDS011;4511;50.890;8.054;2023-07-24T02:31:47;4.47;;;3.50;;
8952;SDS011;4511;50.890;8.054;2023-07-24T02:34:14;6.13;;;3.37;;
8952;SDS011;4511;50.890;8.054;2023-07-24T02:36:42;6.57;;;3.50;;
8952;SDS011;4511;50.890;8.054;2023-07-24T02:39:09;4.97;;;3.10;;
8952;SDS011;4511;50.890;8.054;2023-07-24T02:41:36;3.30;;;3.03;;
8952;SDS011;4511;50.890;8.054;2023-07-24T02:44:02;6.20;;;3.63;;
8952;SDS011;4511;50.890;8.054;2023-07-24T02:46:29;3.83;;;3.23;;
8952;SDS011;4511;50.890;8.054;2023-07-24T02:48:56;4.80;;;3.50;;
8952;SDS011;4511;50.890;8.054;2023-07-24T02:51:23;3.63;;;3.33;;
8952;SDS011;4511;50.890;8.054;2023-07-24T02:53:53;3.80;;;3.50;;
8952;SDS011;4511;50.890;8.054;2023-07-24T02:56:20;3.63;;;3.33;;
8952;SDS011;4511;50.890;8.054;2023-07-24T02:58:47;3.67;;;3.37;;
8952;SDS011;4511;50.890;8.054;2023-07-24T03:01:14;6.73;;;4.50;;
8952;SDS011;4511;50.890;8.054;2023-07-24T03:03:41;4.97;;;4.10;;
8952;SDS011;4511;50.890;8.054;2023-07-24T03:06:08;6.73;;;3.80;;
8952;SDS011;4511;50.890;8.054;2023-07-24T03:08:35;4.07;;;3.73;;
8952;SDS011;4511;50.890;8.054;2023-07-24T03:11:05;4.83;;;3.90;;
8952;SDS011;4511;50.890;8.054;2023-07-24T03:13:32;4.60;;;3.80;;
8952;SDS011;4511;50.890;8.054;2023-07-24T03:15:59;4.00;;;3.60;;
8952;SDS011;4511;50.890;8.054;2023-07-24T03:18:26;4.80;;;3.60;;
8952;SDS011;4511;50.890;8.054;2023-07-24T03:20:52;4.20;;;3.80;;
8952;SDS011;4511;50.890;8.054;2023-07-24T03:23:19;4.10;;;3.50;;
8952;SDS011;4511;50.890;8.054;2023-07-24T03:25:46;3.90;;;3.43;;
8952;SDS011;4511;50.890;8.054;2023-07-24T03:28:14;4.13;;;3.30;;
8952;SDS011;4511;50.890;8.054;2023-07-24T03:30:41;6.17;;;3.67;;
8952;SDS011;4511;50.890;8.054;2023-07-24T03:33:08;4.47;;;4.07;;
8952;SDS011;4511;50.890;8.054;2023-07-24T03:35:37;5.23;;;3.93;;
8952;SDS011;4511;50.890;8.054;2023-07-24T03:38:04;4.60;;;3.33;;
8952;SDS011;4511;50.890;8.054;2023-07-24T03:40:30;5.30;;;3.53;;
8952;SDS011;4511;50.890;8.054;2023-07-24T03:42:57;4.10;;;3.70;;
8952;SDS011;4511;50.890;8.054;2023-07-24T03:45:25;6.37;;;3.87;;
8952;SDS011;4511;50.890;8.054;2023-07-24T03:47:52;4.00;;;3.60;;
8952;SDS011;4511;50.890;8.054;2023-07-24T03:50:19;4.67;;;3.57;;
8952;SDS011;4511;50.890;8.054;2023-07-24T03:52:46;5.33;;;3.50;;
8952;SDS011;4511;50.890;8.054;2023-07-24T03:55:12;4.77;;;3.70;;
8952;SDS011;4511;50.890;8.054;2023-07-24T03:57:39;5.37;;;3.47;;
8952;SDS011;4511;50.890;8.054;2023-07-24T04:00:06;4.70;;;3.87;;
8952;SDS011;4511;50.890;8.054;2023-07-24T04:02:36;3.73;;;3.43;;
8952;SDS011;4511;50.890;8.054;2023-07-24T04:05:03;7.27;;;3.97;;
8952;SDS011;4511;50.890;8.054;2023-07-24T04:07:30;6.07;;;4.13;;
8952;SDS011;4511;50.890;8.054;2023-07-24T04:09:57;3.87;;;3.57;;
8952;SDS011;4511;50.890;8.054;2023-07-24T04:12:23;4.30;;;3.90;;
8952;SDS011;4511;50.890;8.054;2023-07-24T04:14:50;4.20;;;3.80;;
8952;SDS011;4511;50.890;8.054;2023-07-24T04:17:17;3.83;;;3.50;;
8952;SDS011;4511;50.890;8.054;2023-07-24T04:19:45;4.20;;;3.80;;
8952;SDS011;4511;50.890;8.054;2023-07-24T04:22:12;3.30;;;3.00;;
8952;SDS011;4511;50.890;8.054;2023-07-24T04:24:39;4.90;;;3.27;;
8952;SDS011;4511;50.890;8.054;2023-07-24T04:27:06;4.07;;;3.60;;
8952;SDS011;4511;50.890;8.054;2023-07-24T04:29:33;4.17;;;3.77;;
8952;SDS011;4511;50.890;8.054;2023-07-24T04:32:00;5.90;;;4.17;;
8952;SDS011;4511;50.890;8.054;2023-07-24T04:34:27;4.17;;;3.77;;
8952;SDS011;4511;50.890;8.054;2023-07-24T04:36:55;5.03;;;4.10;;
8952;SDS011;4511;50.890;8.054;2023-07-24T04:39:22;6.30;;;3.60;;
8952;SDS011;4511;50.890;8.054;2023-07-24T04:41:49;4.47;;;4.03;;
8952;SDS011;4511;50.890;8.054;2023-07-24T04:44:15;7.20;;;3.77;;
8952;SDS011;4511;50.890;8.054;2023-07-24T04:46:42;4.53;;;3.73;;
8952;SDS011;4511;50.890;8.054;2023-07-24T04:49:09;4.90;;;3.80;;
8952;SDS011;4511;50.890;8.054;2023-07-24T04:51:35;4.40;;;4.00;;
8952;SDS011;4511;50.890;8.054;2023-07-24T04:54:04;3.87;;;3.37;;
8952;SDS011;4511;50.890;8.054;2023-07-24T04:56:30;5.30;;;4.20;;
8952;SDS011;4511;50.890;8.054;2023-07-24T04:58:57;5.63;;;3.67;;
8952;SDS011;4511;50.890;8.054;2023-07-24T05:01:24;4.73;;;3.97;;
8952;SDS011;4511;50.890;8.054;2023-07-24T05:03:51;3.87;;;3.50;;
8952;SDS011;4511;50.890;8.054;2023-07-24T05:06:18;4.47;;;4.07;;
8952;SDS011;4511;50.890;8.054;2023-07-24T05:08:44;5.60;;;4.20;;
8952;SDS011;4511;50.890;8.054;2023-07-24T05:11:13;6.30;;;3.87;;
8952;SDS011;4511;50.890;8.054;2023-07-24T05:13:39;4.43;;;4.03;;
8952;SDS011;4511;50.890;8.054;2023-07-24T05:16:06;4.03;;;3.63;;
8952;SDS011;4511;50.890;8.054;2023-07-24T05:18:33;4.73;;;4.20;;
8952;SDS011;4511;50.890;8.054;2023-07-24T05:21:00;5.27;;;3.67;;
8952;SDS011;4511;50.890;8.054;2023-07-24T05:23:26;6.37;;;3.53;;
8952;SDS011;4511;50.890;8.054;2023-07-24T05:25:56;4.53;;;4.13;;
8952;SDS011;4511;50.890;8.054;2023-07-24T05:28:25;4.67;;;4.17;;
8952;SDS011;4511;50.890;8.054;2023-07-24T05:30:52;4.43;;;4.03;;
8952;SDS011;4511;50.890;8.054;2023-07-24T05:33:19;4.97;;;3.87;;
8952;SDS011;4511;50.890;8.054;2023-07-24T05:35:46;4.63;;;3.83;;
8952;SDS011;4511;50.890;8.054;2023-07-24T05:38:14;7.47;;;4.47;;
8952;SDS011;4511;50.890;8.054;2023-07-24T05:40:40;6.40;;;4.63;;
8952;SDS011;4511;50.890;8.054;2023-07-24T05:43:07;4.60;;;4.20;;
8952;SDS011;4511;50.890;8.054;2023-07-24T05:45:35;4.73;;;3.90;;
8952;SDS011;4511;50.890;8.054;2023-07-24T05:48:02;6.07;;;4.30;;
8952;SDS011;4511;50.890;8.054;2023-07-24T05:50:29;4.23;;;3.83;;
8952;SDS011;4511;50.890;8.054;2023-07-24T05:52:56;5.43;;;4.23;;
8952;SDS011;4511;50.890;8.054;2023-07-24T05:55:23;5.60;;;3.80;;
8952;SDS011;4511;50.890;8.054;2023-07-24T05:57:50;5.17;;;4.40;;
8952;SDS011;4511;50.890;8.054;2023-07-24T06:00:17;4.43;;;4.03;;
8952;SDS011;4511;50.890;8.054;2023-07-24T06:02:45;5.80;;;4.40;;
8952;SDS011;4511;50.890;8.054;2023-07-24T06:05:12;5.57;;;4.37;;
8952;SDS011;4511;50.890;8.054;2023-07-24T06:07:39;5.20;;;4.40;;
8952;SDS011;4511;50.890;8.054;2023-07-24T06:10:06;6.63;;;4.97;;
8952;SDS011;4511;50.890;8.054;2023-07-24T06:12:33;6.07;;;4.33;;
8952;SDS011;4511;50.890;8.054;2023-07-24T06:15:00;4.80;;;4.20;;
8952;SDS011;4511;50.890;8.054;2023-07-24T06:17:27;5.97;;;5.07;;
8952;SDS011;4511;50.890;8.054;2023-07-24T06:19:55;5.77;;;4.50;;
8952;SDS011;4511;50.890;8.054;2023-07-24T06:22:22;6.10;;;5.00;;
8952;SDS011;4511;50.890;8.054;2023-07-24T06:24:49;9.93;;;4.80;;
8952;SDS011;4511;50.890;8.054;2023-07-24T06:27:15;5.10;;;4.60;;
8952;SDS011;4511;50.890;8.054;2023-07-24T06:29:42;5.33;;;4.53;;
8952;SDS011;4511;50.890;8.054;2023-07-24T06:32:09;6.23;;;4.60;;
8952;SDS011;4511;50.890;8.054;2023-07-24T06:34:36;5.90;;;4.40;;
8952;SDS011;4511;50.890;8.054;2023-07-24T06:37:04;5.17;;;4.47;;
8952;SDS011;4511;50.890;8.054;2023-07-24T06:39:31;6.93;;;4.70;;
8952;SDS011;4511;50.890;8.054;2023-07-24T06:41:58;7.20;;;5.13;;
8952;SDS011;4511;50.890;8.054;2023-07-24T06:44:25;5.83;;;4.90;;
8952;SDS011;4511;50.890;8.054;2023-07-24T06:46:53;6.57;;;4.90;;
8952;SDS011;4511;50.890;8.054;2023-07-24T06:49:20;5.20;;;4.50;;
8952;SDS011;4511;50.890;8.054;2023-07-24T06:51:46;5.23;;;4.73;;
8952;SDS011;4511;50.890;8.054;2023-07-24T06:54:15;6.97;;;5.20;;
8952;SDS011;4511;50.890;8.054;2023-07-24T06:56:41;5.40;;;4.77;;
8952;SDS011;4511;50.890;8.054;2023-07-24T06:59:08;8.40;;;4.50;;
8952;SDS011;4511;50.890;8.054;2023-07-24T07:01:35;6.43;;;4.60;;
8952;SDS011;4511;50.890;8.054;2023-07-24T07:04:02;6.80;;;4.90;;
8952;SDS011;4511;50.890;8.054;2023-07-24T07:06:29;8.00;;;5.37;;
8952;SDS011;4511;50.890;8.054;2023-07-24T07:08:56;5.50;;;4.90;;
8952;SDS011;4511;50.890;8.054;2023-07-24T07:11:24;7.13;;;4.80;;
8952;SDS011;4511;50.890;8.054;2023-07-24T07:13:51;5.33;;;4.83;;
8952;SDS011;4511;50.890;8.054;2023-07-24T07:16:18;7.63;;;4.80;;
8952;SDS011;4511;50.890;8.054;2023-07-24T07:18:45;6.27;;;4.80;;
8952;SDS011;4511;50.890;8.054;2023-07-24T07:21:11;6.30;;;4.93;;
8952;SDS011;4511;50.890;8.054;2023-07-24T07:23:38;6.37;;;4.90;;
8952;SDS011;4511;50.890;8.054;2023-07-24T07:26:05;8.63;;;5.10;;
8952;SDS011;4511;50.890;8.054;2023-07-24T07:28:33;6.00;;;5.23;;
8952;SDS011;4511;50.890;8.054;2023-07-24T07:31:00;7.83;;;4.83;;
8952;SDS011;4511;50.890;8.054;2023-07-24T07:33:27;6.73;;;5.00;;
8952;SDS011;4511;50.890;8.054;2023-07-24T07:35:54;6.37;;;4.80;;
8952;SDS011;4511;50.890;8.054;2023-07-24T07:38:21;6.57;;;5.23;;
8952;SDS011;4511;50.890;8.054;2023-07-24T07:40:48;5.37;;;4.80;;
8952;SDS011;4511;50.890;8.054;2023-07-24T07:43:15;6.23;;;4.80;;
8952;SDS011;4511;50.890;8.054;2023-07-24T07:45:43;5.10;;;4.40;;
8952;SDS011;4511;50.890;8.054;2023-07-24T07:48:09;5.87;;;4.77;;
8952;SDS011;4511;50.890;8.054;2023-07-24T07:50:36;6.57;;;5.00;;
8952;SDS011;4511;50.890;8.054;2023-07-24T07:53:03;5.90;;;4.70;;
8952;SDS011;4511;50.890;8.054;2023-07-24T07:55:30;6.20;;;5.10;;
8952;SDS011;4511;50.890;8.054;2023-07-24T07:57:56;6.60;;;4.53;;
8952;SDS011;4511;50.890;8.054;2023-07-24T08:00:23;4.90;;;4.40;;
8952;SDS011;4511;50.890;8.054;2023-07-24T08:02:51;5.87;;;4.70;;
8952;SDS011;4511;50.890;8.054;2023-07-24T08:05:18;6.50;;;4.80;;
8952;SDS011;4511;50.890;8.054;2023-07-24T08:07:45;7.43;;;5.00;;
8952;SDS011;4511;50.890;8.054;2023-07-24T08:10:12;8.50;;;4.93;;
8952;SDS011;4511;50.890;8.054;2023-07-24T08:12:40;7.43;;;5.20;;
8952;SDS011;4511;50.890;8.054;2023-07-24T08:15:07;5.80;;;4.67;;
8952;SDS011;4511;50.890;8.054;2023-07-24T08:17:35;6.17;;;4.90;;
8952;SDS011;4511;50.890;8.054;2023-07-24T08:20:03;7.23;;;5.00;;
8952;SDS011;4511;50.890;8.054;2023-07-24T08:22:31;7.20;;;4.77;;
8952;SDS011;4511;50.890;8.054;2023-07-24T08:24:58;5.53;;;4.70;;
8952;SDS011;4511;50.890;8.054;2023-07-24T08:27:25;4.90;;;4.27;;
8952;SDS011;4511;50.890;8.054;2023-07-24T08:29:52;7.40;;;4.90;;
8952;SDS011;4511;50.890;8.054;2023-07-24T08:32:19;5.70;;;4.60;;
8952;SDS011;4511;50.890;8.054;2023-07-24T08:34:46;5.20;;;4.43;;
8952;SDS011;4511;50.890;8.054;2023-07-24T08:37:14;5.70;;;4.53;;
8952;SDS011;4511;50.890;8.054;2023-07-24T08:39:40;5.33;;;4.27;;
8952;SDS011;4511;50.890;8.054;2023-07-24T08:42:08;5.10;;;4.60;;
8952;SDS011;4511;50.890;8.054;2023-07-24T08:44:36;5.77;;;4.50;;
8952;SDS011;4511;50.890;8.054;2023-07-24T08:47:03;5.13;;;4.70;;
8952;SDS011;4511;50.890;8.054;2023-07-24T08:49:32;5.57;;;4.73;;
8952;SDS011;4511;50.890;8.054;2023-07-24T08:52:00;7.10;;;4.70;;
8952;SDS011;4511;50.890;8.054;2023-07-24T08:54:30;6.70;;;4.53;;
8952;SDS011;4511;50.890;8.054;2023-07-24T08:56:59;7.07;;;5.07;;
8952;SDS011;4511;50.890;8.054;2023-07-24T08:59:26;5.03;;;4.53;;
8952;SDS011;4511;50.890;8.054;2023-07-24T09:01:53;5.57;;;5.03;;
8952;SDS011;4511;50.890;8.054;2023-07-24T09:04:20;5.40;;;4.90;;
8952;SDS011;4511;50.890;8.054;2023-07-24T09:06:47;6.17;;;4.90;;
8952;SDS011;4511;50.890;8.054;2023-07-24T09:09:15;5.20;;;4.67;;
8952;SDS011;4511;50.890;8.054;2023-07-24T09:11:48;6.10;;;4.57;;
8952;SDS011;4511;50.890;8.054;2023-07-24T09:14:25;6.37;;;4.90;;
8952;SDS011;4511;50.890;8.054;2023-07-24T09:17:03;5.77;;;4.87;;
8952;SDS011;4511;50.890;8.054;2023-07-24T09:19:31;5.30;;;4.77;;
8952;SDS011;4511;50.890;8.054;2023-07-24T09:22:07;6.33;;;4.87;;
8952;SDS011;4511;50.890;8.054;2023-07-24T09:24:35;5.87;;;4.77;;
8952;SDS011;4511;50.890;8.054;2023-07-24T09:27:04;6.10;;;4.57;;
8952;SDS011;4511;50.890;8.054;2023-07-24T09:29:32;5.57;;;4.53;;
8952;SDS011;4511;50.890;8.054;2023-07-24T09:31:59;6.60;;;4.90;;
8952;SDS011;4511;50.890;8.054;2023-07-24T09:34:26;5.63;;;4.70;;
8952;SDS011;4511;50.890;8.054;2023-07-24T09:36:53;4.80;;;4.30;;
8952;SDS011;4511;50.890;8.054;2023-07-24T09:39:22;5.17;;;4.37;;
8952;SDS011;4511;50.890;8.054;2023-07-24T09:41:49;4.60;;;4.03;;
8952;SDS011;4511;50.890;8.054;2023-07-24T09:44:18;6.83;;;4.00;;
8952;SDS011;4511;50.890;8.054;2023-07-24T09:46:45;9.00;;;4.40;;
8952;SDS011;4511;50.890;8.054;2023-07-24T09:49:12;6.83;;;4.20;;
8952;SDS011;4511;50.890;8.054;2023-07-24T09:51:39;4.37;;;4.00;;
8952;SDS011;4511;50.890;8.054;2023-07-24T09:54:13;6.20;;;4.07;;
8952;SDS011;4511;50.890;8.054;2023-07-24T09:56:45;4.63;;;4.23;;
8952;SDS011;4511;50.890;8.054;2023-07-24T09:59:13;4.73;;;3.80;;
8952;SDS011;4511;50.890;8.054;2023-07-24T10:01:41;5.80;;;4.00;;
8952;SDS011;4511;50.890;8.054;2023-07-24T10:04:08;6.10;;;3.97;;
8952;SDS011;4511;50.890;8.054;2023-07-24T10:06:36;7.07;;;3.97;;
8952;SDS011;4511;50.890;8.054;2023-07-24T10:09:03;6.00;;;4.03;;
8952;SDS011;4511;50.890;8.054;2023-07-24T10:11:31;4.50;;;3.83;;
8952;SDS011;4511;50.890;8.054;2023-07-24T10:13:58;4.30;;;3.90;;
8952;SDS011;4511;50.890;8.054;2023-07-24T10:16:25;5.63;;;4.03;;
8952;SDS011;4511;50.890;8.054;2023-07-24T10:18:54;6.83;;;4.03;;
8952;SDS011;4511;50.890;8.054;2023-07-24T10:21:26;3.70;;;3.40;;
8952;SDS011;4511;50.890;8.054;2023-07-24T10:23:53;5.63;;;3.40;;
8952;SDS011;4511;50.890;8.054;2023-07-24T10:26:24;3.70;;;3.40;;
8952;SDS011;4511;50.890;8.054;2023-07-24T10:28:51;3.93;;;3.50;;
8952;SDS011;4511;50.890;8.054;2023-07-24T10:31:21;4.10;;;3.70;;
8952;SDS011;4511;50.890;8.054;2023-07-24T10:33:49;3.73;;;3.43;;
8952;SDS011;4511;50.890;8.054;2023-07-24T10:36:18;4.17;;;3.47;;
8952;SDS011;4511;50.890;8.054;2023-07-24T10:38:51;4.13;;;3.70;;
8952;SDS011;4511;50.890;8.054;2023-07-24T10:41:19;4.00;;;3.60;;
8952;SDS011;4511;50.890;8.054;2023-07-24T10:43:46;3.80;;;3.40;;
8952;SDS011;4511;50.890;8.054;2023-07-24T10:46:14;6.30;;;3.50;;
8952;SDS011;4511;50.890;8.054;2023-07-24T10:48:42;4.10;;;3.50;;
8952;SDS011;4511;50.890;8.054;2023-07-24T10:51:10;3.87;;;3.57;;
8952;SDS011;4511;50.890;8.054;2023-07-24T10:53:41;6.10;;;3.50;;
8952;SDS011;4511;50.890;8.054;2023-07-24T10:56:10;3.50;;;3.20;;
8952;SDS011;4511;50.890;8.054;2023-07-24T10:58:36;3.70;;;3.20;;
8952;SDS011;4511;50.890;8.054;2023-07-24T11:01:04;4.00;;;3.20;;
8952;SDS011;4511;50.890;8.054;2023-07-24T11:03:31;4.03;;;3.63;;
8952;SDS011;4511;50.890;8.054;2023-07-24T11:05:58;3.77;;;3.33;;
8952;SDS011;4511;50.890;8.054;2023-07-24T11:08:25;3.60;;;3.30;;
8952;SDS011;4511;50.890;8.054;2023-07-24T11:10:54;3.60;;;3.30;;
8952;SDS011;4511;50.890;8.054;2023-07-24T11:13:23;4.20;;;3.70;;
8952;SDS011;4511;50.890;8.054;2023-07-24T11:15:51;4.73;;;3.40;;
8952;SDS011;4511;50.890;8.054;2023-07-24T11:18:19;3.50;;;3.20;;
8952;SDS011;4511;50.890;8.054;2023-07-24T11:20:51;4.10;;;3.70;;
8952;SDS011;4511;50.890;8.054;2023-07-24T11:23:19;4.60;;;3.70;;
8952;SDS011;4511;50.890;8.054;2023-07-24T11:25:46;4.57;;;3.60;;
8952;SDS011;4511;50.890;8.054;2023-07-24T11:28:17;4.03;;;3.60;;
8952;SDS011;4511;50.890;8.054;2023-07-24T11:30:44;4.53;;;3.50;;
8952;SDS011;4511;50.890;8.054;2023-07-24T11:33:11;4.43;;;3.83;;
8952;SDS011;4511;50.890;8.054;2023-07-24T11:35:40;4.97;;;3.73;;
8952;SDS011;4511;50.890;8.054;2023-07-24T11:38:08;4.77;;;3.60;;
8952;SDS011;4511;50.890;8.054;2023-07-24T11:40:35;5.87;;;3.50;;
8952;SDS011;4511;50.890;8.054;2023-07-24T11:43:04;4.37;;;3.97;;
8952;SDS011;4511;50.890;8.054;2023-07-24T11:45:39;4.90;;;3.73;;
8952;SDS011;4511;50.890;8.054;2023-07-24T11:48:09;6.07;;;3.57;;
8952;SDS011;4511;50.890;8.054;2023-07-24T11:50:41;4.43;;;4.00;;
8952;SDS011;4511;50.890;8.054;2023-07-24T11:53:18;4.63;;;4.00;;
8952;SDS011;4511;50.890;8.054;2023-07-24T11:55:46;4.50;;;3.80;;
8952;SDS011;4511;50.890;8.054;2023-07-24T11:58:14;6.43;;;4.20;;
8952;SDS011;4511;50.890;8.054;2023-07-24T12:00:43;4.63;;;3.80;;
8952;SDS011;4511;50.890;8.054;2023-07-24T12:03:11;4.97;;;3.83;;
8952;SDS011;4511;50.890;8.054;2023-07-24T12:05:38;4.30;;;3.90;;
8952;SDS011;4511;50.890;8.054;2023-07-24T12:08:05;4.80;;;3.60;;
8952;SDS011;4511;50.890;8.054;2023-07-24T12:10:35;4.23;;;3.83;;
8952;SDS011;4511;50.890;8.054;2023-07-24T12:13:03;4.53;;;4.17;;
8952;SDS011;4511;50.890;8.054;2023-07-24T12:15:30;4.27;;;3.77;;
8952;SDS011;4511;50.890;8.054;2023-07-24T12:17:59;3.60;;;3.30;;
8952;SDS011;4511;50.890;8.054;2023-07-24T12:20:26;4.37;;;3.57;;
8952;SDS011;4511;50.890;8.054;2023-07-24T12:22:53;5.10;;;3.80;;
8952;SDS011;4511;50.890;8.054;2023-07-24T12:25:20;5.43;;;3.73;;
8952;SDS011;4511;50.890;8.054;2023-07-24T12:27:47;4.17;;;3.77;;
8952;SDS011;4511;50.890;8.054;2023-07-24T12:30:14;7.33;;;3.90;;
8952;SDS011;4511;50.890;8.054;2023-07-24T12:32:41;3.67;;;3.37;;
8952;SDS011;4511;50.890;8.054;2023-07-24T12:35:12;5.87;;;3.27;;
8952;SDS011;4511;50.890;8.054;2023-07-24T12:37:39;3.83;;;3.40;;
8952;SDS011;4511;50.890;8.054;2023-07-24T12:40:07;4.37;;;3.30;;
8952;SDS011;4511;50.890;8.054;2023-07-24T12:42:34;6.33;;;3.80;;
8952;SDS011;4511;50.890;8.054;2023-07-24T12:45:01;4.27;;;3.73;;
8952;SDS011;4511;50.890;8.054;2023-07-24T12:47:29;4.67;;;3.27;;
8952;SDS011;4511;50.890;8.054;2023-07-24T12:49:56;4.07;;;3.63;;
8952;SDS011;4511;50.890;8.054;2023-07-24T12:52:25;4.87;;;3.60;;
8952;SDS011;4511;50.890;8.054;2023-07-24T12:54:53;3.67;;;3.37;;
8952;SDS011;4511;50.890;8.054;2023-07-24T12:57:19;3.93;;;3.40;;
8952;SDS011;4511;50.890;8.054;2023-07-24T12:59:46;3.50;;;3.20;;
8952;SDS011;4511;50.890;8.054;2023-07-24T13:02:13;3.57;;;3.27;;
8952;SDS011;4511;50.890;8.054;2023-07-24T13:04:40;4.60;;;3.40;;
8952;SDS011;4511;50.890;8.054;2023-07-24T13:07:07;4.67;;;3.70;;
8952;SDS011;4511;50.890;8.054;2023-07-24T13:09:35;4.07;;;3.70;;
8952;SDS011;4511;50.890;8.054;2023-07-24T13:12:01;3.83;;;3.43;;
8952;SDS011;4511;50.890;8.054;2023-07-24T13:14:28;3.80;;;3.33;;
8952;SDS011;4511;50.890;8.054;2023-07-24T13:16:55;6.63;;;3.40;;
8952;SDS011;4511;50.890;8.054;2023-07-24T13:19:22;3.30;;;3.00;;
8952;SDS011;4511;50.890;8.054;2023-07-24T13:21:49;3.30;;;3.00;;
8952;SDS011;4511;50.890;8.054;2023-07-24T13:24:16;7.07;;;3.70;;
8952;SDS011;4511;50.890;8.054;2023-07-24T13:26:44;6.33;;;3.60;;
8952;SDS011;4511;50.890;8.054;2023-07-24T13:29:11;3.43;;;3.07;;
8952;SDS011;4511;50.890;8.054;2023-07-24T13:31:38;4.87;;;3.30;;
8952;SDS011;4511;50.890;8.054;2023-07-24T13:34:05;4.17;;;3.13;;
8952;SDS011;4511;50.890;8.054;2023-07-24T13:36:32;2.70;;;2.43;;
8952;SDS011;4511;50.890;8.054;2023-07-24T13:38:59;2.23;;;1.90;;
8952;SDS011;4511;50.890;8.054;2023-07-24T13:41:26;2.30;;;2.10;;
8952;SDS011;4511;50.890;8.054;2023-07-24T13:43:54;2.20;;;2.00;;
8952;SDS011;4511;50.890;8.054;2023-07-24T13:46:20;2.20;;;2.00;;
8952;SDS011;4511;50.890;8.054;2023-07-24T13:48:47;2.60;;;1.90;;
8952;SDS011;4511;50.890;8.054;2023-07-24T13:51:14;2.13;;;1.93;;
8952;SDS011;4511;50.890;8.054;2023-07-24T13:53:41;1.80;;;1.70;;
8952;SDS011;4511;50.890;8.054;2023-07-24T13:56:07;2.10;;;1.90;;
8952;SDS011;4511;50.890;8.054;2023-07-24T13:58:34;1.97;;;1.87;;
8952;SDS011;4511;50.890;8.054;2023-07-24T14:01:02;2.80;;;1.90;;
8952;SDS011;4511;50.890;8.054;2023-07-24T14:03:32;2.17;;;1.97;;
8952;SDS011;4511;50.890;8.054;2023-07-24T14:05:59;2.20;;;2.00;;
8952;SDS011;4511;50.890;8.054;2023-07-24T14:08:25;2.47;;;2.00;;
8952;SDS011;4511;50.890;8.054;2023-07-24T14:10:52;3.77;;;2.00;;
8952;SDS011;4511;50.890;8.054;2023-07-24T14:13:19;4.10;;;1.83;;
8952;SDS011;4511;50.890;8.054;2023-07-24T14:15:46;2.83;;;1.80;;
8952;SDS011;4511;50.890;8.054;2023-07-24T14:18:14;2.60;;;1.83;;
8952;SDS011;4511;50.890;8.054;2023-07-24T14:20:41;7.57;;;2.77;;
8952;SDS011;4511;50.890;8.054;2023-07-24T14:23:08;17.47;;;3.40;;
8952;SDS011;4511;50.890;8.054;2023-07-24T14:25:35;5.90;;;2.60;;
8952;SDS011;4511;50.890;8.054;2023-07-24T14:28:01;11.77;;;2.57;;
8952;SDS011;4511;50.890;8.054;2023-07-24T14:30:28;4.00;;;1.77;;
8952;SDS011;4511;50.890;8.054;2023-07-24T14:32:55;2.23;;;1.83;;
8952;SDS011;4511;50.890;8.054;2023-07-24T14:35:23;2.37;;;1.80;;
8952;SDS011;4511;50.890;8.054;2023-07-24T14:37:50;4.20;;;2.00;;
8952;SDS011;4511;50.890;8.054;2023-07-24T14:40:17;3.90;;;1.73;;
8952;SDS011;4511;50.890;8.054;2023-07-24T14:42:44;2.00;;;1.63;;
8952;SDS011;4511;50.890;8.054;2023-07-24T14:45:11;2.13;;;1.87;;
8952;SDS011;4511;50.890;8.054;2023-07-24T14:47:37;2.47;;;1.60;;
8952;SDS011;4511;50.890;8.054;2023-07-24T14:50:05;2.00;;;1.87;;
8952;SDS011;4511;50.890;8.054;2023-07-24T14:52:34;1.67;;;1.57;;
8952;SDS011;4511;50.890;8.054;2023-07-24T14:55:00;2.03;;;1.67;;
8952;SDS011;4511;50.890;8.054;2023-07-24T14:57:28;4.17;;;2.50;;
8952;SDS011;4511;50.890;8.054;2023-07-24T14:59:54;2.77;;;1.90;;
8952;SDS011;4511;50.890;8.054;2023-07-24T15:02:21;3.13;;;1.60;;
8952;SDS011;4511;50.890;8.054;2023-07-24T15:04:48;2.40;;;2.00;;
8952;SDS011;4511;50.890;8.054;2023-07-24T15:07:15;3.70;;;2.30;;
8952;SDS011;4511;50.890;8.054;2023-07-24T15:09:43;2.40;;;2.00;;
8952;SDS011;4511;50.890;8.054;2023-07-24T15:12:10;3.37;;;2.13;;
8952;SDS011;4511;50.890;8.054;2023-07-24T15:14:36;2.27;;;2.03;;
8952;SDS011;4511;50.890;8.054;2023-07-24T15:17:03;2.33;;;1.80;;